sensor_id;sensor_type;location;lat;lon;timestamp;P1;durP1;ratioP1;P2;durP2;ratioP2
45806;SDS011;31507;51.494;7.518;2022-07-06T00:02:04;3.92;;;1.45;;
45806;SDS011;31507;51.494;7.518;2022-07-06T00:04:29;5.90;;;1.48;;
45806;SDS011;31507;51.494;7.518;2022-07-06T00:06:55;4.30;;;1.50;;
45806;SDS011;31507;51.494;7.518;2022-07-06T00:09:22;3.35;;;1.77;;
45806;SDS011;31507;51.494;7.518;2022-07-06T00:11:48;1.88;;;1.40;;
45806;SDS011;31507;51.494;7.518;2022-07-06T00:14:13;2.72;;;1.25;;
45806;SDS011;31507;51.494;7.518;2022-07-06T00:16:39;4.20;;;1.77;;
45806;SDS011;31507;51.494;7.518;2022-07-06T00:19:04;3.55;;;1.50;;
45806;SDS011;31507;51.494;7.518;2022-07-06T00:21:30;5.47;;;1.52;;
45806;SDS011;31507;51.494;7.518;2022-07-06T00:23:56;2.10;;;1.60;;
45806;SDS011;31507;51.494;7.518;2022-07-06T00:26:21;7.10;;;1.92;;
45806;SDS011;31507;51.494;7.518;2022-07-06T00:28:47;9.15;;;1.95;;
45806;SDS011;31507;51.494;7.518;2022-07-06T00:31:13;8.02;;;1.98;;
45806;SDS011;31507;51.494;7.518;2022-07-06T00:33:38;5.50;;;1.77;;
45806;SDS011;31507;51.494;7.518;2022-07-06T00:36:04;4.50;;;1.70;;
45806;SDS011;31507;51.494;7.518;2022-07-06T00:38:29;4.60;;;1.42;;
45806;SDS011;31507;51.494;7.518;2022-07-06T00:40:55;5.45;;;1.63;;
45806;SDS011;31507;51.494;7.518;2022-07-06T00:43:21;4.57;;;1.52;;
45806;SDS011;31507;51.494;7.518;2022-07-06T00:45:47;3.55;;;1.55;;
45806;SDS011;31507;51.494;7.518;2022-07-06T00:48:12;3.90;;;1.63;;
45806;SDS011;31507;51.494;7.518;2022-07-06T00:50:38;3.28;;;1.42;;
45806;SDS011;31507;51.494;7.518;2022-07-06T00:53:05;3.97;;;1.50;;
45806;SDS011;31507;51.494;7.518;2022-07-06T00:55:34;2.08;;;1.40;;
45806;SDS011;31507;51.494;7.518;2022-07-06T00:58:02;2.95;;;1.52;;
45806;SDS011;31507;51.494;7.518;2022-07-06T01:00:29;3.30;;;1.50;;
45806;SDS011;31507;51.494;7.518;2022-07-06T01:02:55;6.38;;;1.77;;
45806;SDS011;31507;51.494;7.518;2022-07-06T01:05:21;3.60;;;1.77;;
45806;SDS011;31507;51.494;7.518;2022-07-06T01:07:47;3.30;;;1.52;;
45806;SDS011;31507;51.494;7.518;2022-07-06T01:10:15;2.35;;;1.42;;
45806;SDS011;31507;51.494;7.518;2022-07-06T01:12:44;14.40;;;1.88;;
45806;SDS011;31507;51.494;7.518;2022-07-06T01:15:21;3.28;;;1.40;;
45806;SDS011;31507;51.494;7.518;2022-07-06T01:17:48;4.80;;;1.50;;
45806;SDS011;31507;51.494;7.518;2022-07-06T01:20:14;7.10;;;1.58;;
45806;SDS011;31507;51.494;7.518;2022-07-06T01:22:40;7.43;;;1.70;;
45806;SDS011;31507;51.494;7.518;2022-07-06T01:25:07;6.97;;;1.35;;
45806;SDS011;31507;51.494;7.518;2022-07-06T01:27:36;3.10;;;1.60;;
45806;SDS011;31507;51.494;7.518;2022-07-06T01:30:07;5.30;;;1.48;;
45806;SDS011;31507;51.494;7.518;2022-07-06T01:32:35;3.35;;;1.30;;
45806;SDS011;31507;51.494;7.518;2022-07-06T01:35:01;6.90;;;1.88;;
45806;SDS011;31507;51.494;7.518;2022-07-06T01:37:27;6.18;;;1.85;;
45806;SDS011;31507;51.494;7.518;2022-07-06T01:39:52;7.57;;;1.60;;
45806;SDS011;31507;51.494;7.518;2022-07-06T01:42:18;8.13;;;2.03;;
45806;SDS011;31507;51.494;7.518;2022-07-06T01:44:44;10.00;;;1.75;;
45806;SDS011;31507;51.494;7.518;2022-07-06T01:47:10;7.45;;;1.63;;
45806;SDS011;31507;51.494;7.518;2022-07-06T01:49:36;1.45;;;1.25;;
45806;SDS011;31507;51.494;7.518;2022-07-06T01:52:02;7.93;;;1.67;;
45806;SDS011;31507;51.494;7.518;2022-07-06T01:54:28;8.07;;;1.60;;
45806;SDS011;31507;51.494;7.518;2022-07-06T01:56:54;4.35;;;1.63;;
45806;SDS011;31507;51.494;7.518;2022-07-06T01:59:19;4.68;;;1.38;;
45806;SDS011;31507;51.494;7.518;2022-07-06T02:01:45;2.25;;;1.48;;
45806;SDS011;31507;51.494;7.518;2022-07-06T02:04:10;9.30;;;1.55;;
45806;SDS011;31507;51.494;7.518;2022-07-06T02:06:36;2.88;;;1.75;;
45806;SDS011;31507;51.494;7.518;2022-07-06T02:09:02;3.53;;;1.70;;
45806;SDS011;31507;51.494;7.518;2022-07-06T02:11:27;6.28;;;1.75;;
45806;SDS011;31507;51.494;7.518;2022-07-06T02:13:53;4.75;;;1.40;;
45806;SDS011;31507;51.494;7.518;2022-07-06T02:16:18;4.53;;;1.80;;
45806;SDS011;31507;51.494;7.518;2022-07-06T02:18:44;3.50;;;1.75;;
45806;SDS011;31507;51.494;7.518;2022-07-06T02:21:10;3.85;;;1.55;;
45806;SDS011;31507;51.494;7.518;2022-07-06T02:23:36;5.03;;;1.88;;
45806;SDS011;31507;51.494;7.518;2022-07-06T02:26:01;4.88;;;1.80;;
45806;SDS011;31507;51.494;7.518;2022-07-06T02:28:28;4.05;;;1.70;;
45806;SDS011;31507;51.494;7.518;2022-07-06T02:30:54;2.05;;;1.33;;
45806;SDS011;31507;51.494;7.518;2022-07-06T02:33:20;5.15;;;1.67;;
45806;SDS011;31507;51.494;7.518;2022-07-06T02:35:46;5.88;;;1.42;;
45806;SDS011;31507;51.494;7.518;2022-07-06T02:38:11;3.17;;;1.77;;
45806;SDS011;31507;51.494;7.518;2022-07-06T02:40:37;1.90;;;1.30;;
45806;SDS011;31507;51.494;7.518;2022-07-06T02:43:03;9.98;;;1.67;;
45806;SDS011;31507;51.494;7.518;2022-07-06T02:45:29;2.60;;;1.50;;
45806;SDS011;31507;51.494;7.518;2022-07-06T02:47:55;4.95;;;1.77;;
45806;SDS011;31507;51.494;7.518;2022-07-06T02:50:22;5.03;;;1.40;;
45806;SDS011;31507;51.494;7.518;2022-07-06T02:52:48;7.43;;;1.50;;
45806;SDS011;31507;51.494;7.518;2022-07-06T02:55:14;4.00;;;1.58;;
45806;SDS011;31507;51.494;7.518;2022-07-06T02:57:39;5.30;;;1.80;;
45806;SDS011;31507;51.494;7.518;2022-07-06T03:00:05;3.17;;;1.65;;
45806;SDS011;31507;51.494;7.518;2022-07-06T03:02:32;6.90;;;1.80;;
45806;SDS011;31507;51.494;7.518;2022-07-06T03:04:57;4.97;;;1.65;;
45806;SDS011;31507;51.494;7.518;2022-07-06T03:07:23;7.22;;;1.98;;
45806;SDS011;31507;51.494;7.518;2022-07-06T03:09:49;4.85;;;1.60;;
45806;SDS011;31507;51.494;7.518;2022-07-06T03:12:15;3.60;;;1.40;;
45806;SDS011;31507;51.494;7.518;2022-07-06T03:14:41;2.85;;;1.65;;
45806;SDS011;31507;51.494;7.518;2022-07-06T03:17:07;2.88;;;1.30;;
45806;SDS011;31507;51.494;7.518;2022-07-06T03:19:33;5.72;;;1.60;;
45806;SDS011;31507;51.494;7.518;2022-07-06T03:21:59;5.90;;;1.77;;
45806;SDS011;31507;51.494;7.518;2022-07-06T03:24:24;5.85;;;1.48;;
45806;SDS011;31507;51.494;7.518;2022-07-06T03:26:50;5.93;;;1.70;;
45806;SDS011;31507;51.494;7.518;2022-07-06T03:29:16;3.70;;;1.35;;
45806;SDS011;31507;51.494;7.518;2022-07-06T03:31:42;5.97;;;1.65;;
45806;SDS011;31507;51.494;7.518;2022-07-06T03:34:08;5.95;;;2.08;;
45806;SDS011;31507;51.494;7.518;2022-07-06T03:36:33;5.53;;;1.80;;
45806;SDS011;31507;51.494;7.518;2022-07-06T03:38:59;4.20;;;1.77;;
45806;SDS011;31507;51.494;7.518;2022-07-06T03:41:25;5.05;;;1.95;;
45806;SDS011;31507;51.494;7.518;2022-07-06T03:43:52;4.75;;;1.92;;
45806;SDS011;31507;51.494;7.518;2022-07-06T03:46:17;4.18;;;1.90;;
45806;SDS011;31507;51.494;7.518;2022-07-06T03:48:43;4.00;;;1.85;;
45806;SDS011;31507;51.494;7.518;2022-07-06T03:51:09;6.53;;;1.92;;
45806;SDS011;31507;51.494;7.518;2022-07-06T03:53:36;6.95;;;2.08;;
45806;SDS011;31507;51.494;7.518;2022-07-06T03:56:01;7.55;;;2.20;;
45806;SDS011;31507;51.494;7.518;2022-07-06T03:58:46;8.02;;;2.53;;
45806;SDS011;31507;51.494;7.518;2022-07-06T04:01:12;6.50;;;2.10;;
45806;SDS011;31507;51.494;7.518;2022-07-06T04:03:37;6.43;;;2.45;;
45806;SDS011;31507;51.494;7.518;2022-07-06T04:06:03;6.50;;;2.55;;
45806;SDS011;31507;51.494;7.518;2022-07-06T04:08:29;6.20;;;2.30;;
45806;SDS011;31507;51.494;7.518;2022-07-06T04:10:55;5.55;;;1.80;;
45806;SDS011;31507;51.494;7.518;2022-07-06T04:13:20;2.35;;;1.95;;
45806;SDS011;31507;51.494;7.518;2022-07-06T04:15:46;4.80;;;2.20;;
45806;SDS011;31507;51.494;7.518;2022-07-06T04:18:12;8.27;;;2.28;;
45806;SDS011;31507;51.494;7.518;2022-07-06T04:20:38;4.07;;;1.95;;
45806;SDS011;31507;51.494;7.518;2022-07-06T04:23:04;3.78;;;1.95;;
45806;SDS011;31507;51.494;7.518;2022-07-06T04:25:29;3.05;;;1.70;;
45806;SDS011;31507;51.494;7.518;2022-07-06T04:27:55;3.10;;;2.03;;
45806;SDS011;31507;51.494;7.518;2022-07-06T04:30:21;7.05;;;2.47;;
45806;SDS011;31507;51.494;7.518;2022-07-06T04:32:47;5.68;;;1.90;;
45806;SDS011;31507;51.494;7.518;2022-07-06T04:35:12;3.25;;;1.60;;
45806;SDS011;31507;51.494;7.518;2022-07-06T04:37:38;5.00;;;2.22;;
45806;SDS011;31507;51.494;7.518;2022-07-06T04:40:04;2.33;;;1.88;;
45806;SDS011;31507;51.494;7.518;2022-07-06T04:42:30;4.40;;;1.65;;
45806;SDS011;31507;51.494;7.518;2022-07-06T04:44:55;5.85;;;2.13;;
45806;SDS011;31507;51.494;7.518;2022-07-06T04:47:21;5.88;;;1.70;;
45806;SDS011;31507;51.494;7.518;2022-07-06T04:49:47;2.85;;;1.52;;
45806;SDS011;31507;51.494;7.518;2022-07-06T04:52:12;4.00;;;1.70;;
45806;SDS011;31507;51.494;7.518;2022-07-06T04:54:38;7.13;;;1.50;;
45806;SDS011;31507;51.494;7.518;2022-07-06T04:57:04;3.00;;;1.55;;
45806;SDS011;31507;51.494;7.518;2022-07-06T04:59:30;3.40;;;1.67;;
45806;SDS011;31507;51.494;7.518;2022-07-06T05:01:55;6.88;;;1.95;;
45806;SDS011;31507;51.494;7.518;2022-07-06T05:04:21;4.47;;;1.92;;
45806;SDS011;31507;51.494;7.518;2022-07-06T05:06:48;6.75;;;2.28;;
45806;SDS011;31507;51.494;7.518;2022-07-06T05:09:14;4.68;;;1.67;;
45806;SDS011;31507;51.494;7.518;2022-07-06T05:11:39;7.70;;;2.13;;
45806;SDS011;31507;51.494;7.518;2022-07-06T05:14:05;5.82;;;2.33;;
45806;SDS011;31507;51.494;7.518;2022-07-06T05:16:31;3.72;;;1.90;;
45806;SDS011;31507;51.494;7.518;2022-07-06T05:18:58;10.38;;;2.00;;
45806;SDS011;31507;51.494;7.518;2022-07-06T05:21:23;9.45;;;2.58;;
45806;SDS011;31507;51.494;7.518;2022-07-06T05:23:49;8.43;;;2.05;;
45806;SDS011;31507;51.494;7.518;2022-07-06T05:26:15;6.32;;;1.95;;
45806;SDS011;31507;51.494;7.518;2022-07-06T05:28:40;4.00;;;1.80;;
45806;SDS011;31507;51.494;7.518;2022-07-06T05:31:06;9.52;;;1.70;;
45806;SDS011;31507;51.494;7.518;2022-07-06T05:33:32;8.60;;;2.08;;
45806;SDS011;31507;51.494;7.518;2022-07-06T05:35:58;3.88;;;1.92;;
45806;SDS011;31507;51.494;7.518;2022-07-06T05:38:23;6.90;;;1.88;;
45806;SDS011;31507;51.494;7.518;2022-07-06T05:40:49;3.05;;;1.55;;
45806;SDS011;31507;51.494;7.518;2022-07-06T05:43:15;5.80;;;1.90;;
45806;SDS011;31507;51.494;7.518;2022-07-06T05:45:40;4.57;;;1.90;;
45806;SDS011;31507;51.494;7.518;2022-07-06T05:48:06;2.85;;;1.60;;
45806;SDS011;31507;51.494;7.518;2022-07-06T05:50:50;2.63;;;1.45;;
45806;SDS011;31507;51.494;7.518;2022-07-06T05:53:16;5.10;;;1.90;;
45806;SDS011;31507;51.494;7.518;2022-07-06T05:55:42;4.15;;;1.33;;
45806;SDS011;31507;51.494;7.518;2022-07-06T05:58:07;3.88;;;1.75;;
45806;SDS011;31507;51.494;7.518;2022-07-06T06:00:33;6.85;;;1.45;;
45806;SDS011;31507;51.494;7.518;2022-07-06T06:02:59;4.38;;;1.48;;
45806;SDS011;31507;51.494;7.518;2022-07-06T06:05:25;3.08;;;1.20;;
45806;SDS011;31507;51.494;7.518;2022-07-06T06:07:51;4.60;;;1.58;;
45806;SDS011;31507;51.494;7.518;2022-07-06T06:10:17;4.80;;;1.40;;
45806;SDS011;31507;51.494;7.518;2022-07-06T06:12:44;5.22;;;1.58;;
45806;SDS011;31507;51.494;7.518;2022-07-06T06:15:10;4.07;;;1.50;;
45806;SDS011;31507;51.494;7.518;2022-07-06T06:17:37;4.15;;;1.67;;
45806;SDS011;31507;51.494;7.518;2022-07-06T06:20:07;3.20;;;1.50;;
45806;SDS011;31507;51.494;7.518;2022-07-06T06:22:47;4.63;;;1.60;;
45806;SDS011;31507;51.494;7.518;2022-07-06T06:25:18;5.80;;;1.73;;
45806;SDS011;31507;51.494;7.518;2022-07-06T06:27:55;3.95;;;1.42;;
45806;SDS011;31507;51.494;7.518;2022-07-06T06:30:20;4.57;;;1.20;;
45806;SDS011;31507;51.494;7.518;2022-07-06T06:32:46;6.45;;;1.20;;
45806;SDS011;31507;51.494;7.518;2022-07-06T06:35:12;4.07;;;1.15;;
45806;SDS011;31507;51.494;7.518;2022-07-06T06:37:37;5.05;;;1.15;;
45806;SDS011;31507;51.494;7.518;2022-07-06T06:40:04;2.78;;;1.10;;
45806;SDS011;31507;51.494;7.518;2022-07-06T06:42:31;14.05;;;1.65;;
45806;SDS011;31507;51.494;7.518;2022-07-06T06:44:56;3.10;;;1.20;;
45806;SDS011;31507;51.494;7.518;2022-07-06T06:47:22;2.90;;;1.00;;
45806;SDS011;31507;51.494;7.518;2022-07-06T06:49:48;4.93;;;1.00;;
45806;SDS011;31507;51.494;7.518;2022-07-06T06:52:14;2.08;;;0.77;;
45806;SDS011;31507;51.494;7.518;2022-07-06T06:54:40;2.78;;;1.00;;
45806;SDS011;31507;51.494;7.518;2022-07-06T06:57:05;2.55;;;1.02;;
45806;SDS011;31507;51.494;7.518;2022-07-06T06:59:31;8.15;;;1.45;;
45806;SDS011;31507;51.494;7.518;2022-07-06T07:01:56;3.72;;;1.10;;
45806;SDS011;31507;51.494;7.518;2022-07-06T07:04:22;5.38;;;1.30;;
45806;SDS011;31507;51.494;7.518;2022-07-06T07:06:48;3.60;;;0.90;;
45806;SDS011;31507;51.494;7.518;2022-07-06T07:09:14;3.85;;;0.90;;
45806;SDS011;31507;51.494;7.518;2022-07-06T07:11:39;6.03;;;1.02;;
45806;SDS011;31507;51.494;7.518;2022-07-06T07:14:05;2.53;;;0.80;;
45806;SDS011;31507;51.494;7.518;2022-07-06T07:16:30;4.53;;;0.75;;
45806;SDS011;31507;51.494;7.518;2022-07-06T07:18:56;5.05;;;1.00;;
45806;SDS011;31507;51.494;7.518;2022-07-06T07:21:22;5.20;;;0.98;;
45806;SDS011;31507;51.494;7.518;2022-07-06T07:23:48;4.28;;;1.20;;
45806;SDS011;31507;51.494;7.518;2022-07-06T07:26:15;3.40;;;0.98;;
45806;SDS011;31507;51.494;7.518;2022-07-06T07:28:41;5.20;;;0.90;;
45806;SDS011;31507;51.494;7.518;2022-07-06T07:31:06;4.20;;;0.98;;
45806;SDS011;31507;51.494;7.518;2022-07-06T07:33:32;6.55;;;1.23;;
45806;SDS011;31507;51.494;7.518;2022-07-06T07:35:58;2.35;;;0.85;;
45806;SDS011;31507;51.494;7.518;2022-07-06T07:38:24;3.10;;;0.77;;
45806;SDS011;31507;51.494;7.518;2022-07-06T07:40:50;7.65;;;1.40;;
45806;SDS011;31507;51.494;7.518;2022-07-06T07:43:15;4.53;;;0.75;;
45806;SDS011;31507;51.494;7.518;2022-07-06T07:45:41;6.13;;;1.00;;
45806;SDS011;31507;51.494;7.518;2022-07-06T07:48:06;1.98;;;0.80;;
45806;SDS011;31507;51.494;7.518;2022-07-06T07:50:32;6.72;;;1.05;;
45806;SDS011;31507;51.494;7.518;2022-07-06T07:52:59;4.15;;;1.23;;
45806;SDS011;31507;51.494;7.518;2022-07-06T07:55:25;3.55;;;0.63;;
45806;SDS011;31507;51.494;7.518;2022-07-06T07:57:51;3.63;;;1.00;;
45806;SDS011;31507;51.494;7.518;2022-07-06T08:00:17;4.00;;;0.95;;
45806;SDS011;31507;51.494;7.518;2022-07-06T08:02:42;2.90;;;0.80;;
45806;SDS011;31507;51.494;7.518;2022-07-06T08:05:08;1.77;;;0.80;;
45806;SDS011;31507;51.494;7.518;2022-07-06T08:07:38;2.22;;;0.80;;
45806;SDS011;31507;51.494;7.518;2022-07-06T08:10:03;4.65;;;0.80;;
45806;SDS011;31507;51.494;7.518;2022-07-06T08:12:29;1.73;;;0.60;;
45806;SDS011;31507;51.494;7.518;2022-07-06T08:14:55;1.67;;;0.60;;
45806;SDS011;31507;51.494;7.518;2022-07-06T08:17:20;4.90;;;0.93;;
45806;SDS011;31507;51.494;7.518;2022-07-06T08:19:46;2.47;;;0.70;;
45806;SDS011;31507;51.494;7.518;2022-07-06T08:22:12;1.45;;;0.50;;
45806;SDS011;31507;51.494;7.518;2022-07-06T08:24:37;4.85;;;0.95;;
45806;SDS011;31507;51.494;7.518;2022-07-06T08:27:03;5.13;;;0.85;;
45806;SDS011;31507;51.494;7.518;2022-07-06T08:29:29;3.75;;;0.90;;
45806;SDS011;31507;51.494;7.518;2022-07-06T08:31:56;3.30;;;0.90;;
45806;SDS011;31507;51.494;7.518;2022-07-06T08:34:22;2.38;;;0.88;;
45806;SDS011;31507;51.494;7.518;2022-07-06T08:36:48;4.43;;;1.30;;
45806;SDS011;31507;51.494;7.518;2022-07-06T08:39:14;1.77;;;0.60;;
45806;SDS011;31507;51.494;7.518;2022-07-06T08:41:40;3.05;;;0.60;;
45806;SDS011;31507;51.494;7.518;2022-07-06T08:44:07;6.28;;;0.70;;
45806;SDS011;31507;51.494;7.518;2022-07-06T08:46:33;2.88;;;0.68;;
45806;SDS011;31507;51.494;7.518;2022-07-06T08:49:00;4.30;;;0.57;;
45806;SDS011;31507;51.494;7.518;2022-07-06T08:51:26;3.40;;;0.70;;
45806;SDS011;31507;51.494;7.518;2022-07-06T08:53:53;3.58;;;0.98;;
45806;SDS011;31507;51.494;7.518;2022-07-06T08:56:20;1.27;;;0.70;;
45806;SDS011;31507;51.494;7.518;2022-07-06T08:58:47;3.85;;;0.65;;
45806;SDS011;31507;51.494;7.518;2022-07-06T09:01:13;2.25;;;0.75;;
45806;SDS011;31507;51.494;7.518;2022-07-06T09:03:39;3.78;;;0.50;;
45806;SDS011;31507;51.494;7.518;2022-07-06T09:06:05;1.42;;;0.60;;
45806;SDS011;31507;51.494;7.518;2022-07-06T09:08:32;2.22;;;1.02;;
45806;SDS011;31507;51.494;7.518;2022-07-06T09:10:58;1.35;;;0.68;;
45806;SDS011;31507;51.494;7.518;2022-07-06T09:13:23;5.15;;;0.95;;
45806;SDS011;31507;51.494;7.518;2022-07-06T09:15:49;4.55;;;0.82;;
45806;SDS011;31507;51.494;7.518;2022-07-06T09:18:15;3.88;;;0.80;;
45806;SDS011;31507;51.494;7.518;2022-07-06T09:20:41;4.13;;;0.98;;
45806;SDS011;31507;51.494;7.518;2022-07-06T09:23:07;5.43;;;1.40;;
45806;SDS011;31507;51.494;7.518;2022-07-06T09:25:33;7.03;;;1.00;;
45806;SDS011;31507;51.494;7.518;2022-07-06T09:28:00;1.67;;;0.65;;
45806;SDS011;31507;51.494;7.518;2022-07-06T09:30:26;2.28;;;0.47;;
45806;SDS011;31507;51.494;7.518;2022-07-06T09:32:53;2.47;;;0.55;;
45806;SDS011;31507;51.494;7.518;2022-07-06T09:35:24;3.03;;;0.80;;
45806;SDS011;31507;51.494;7.518;2022-07-06T09:37:59;2.92;;;0.60;;
45806;SDS011;31507;51.494;7.518;2022-07-06T09:40:33;5.10;;;0.95;;
45806;SDS011;31507;51.494;7.518;2022-07-06T09:45:46;2.70;;;0.73;;
45806;SDS011;31507;51.494;7.518;2022-07-06T09:48:16;2.88;;;0.88;;
45806;SDS011;31507;51.494;7.518;2022-07-06T09:50:51;2.55;;;0.60;;
45806;SDS011;31507;51.494;7.518;2022-07-06T09:53:24;2.25;;;0.90;;
45806;SDS011;31507;51.494;7.518;2022-07-06T09:55:55;1.65;;;0.63;;
45806;SDS011;31507;51.494;7.518;2022-07-06T09:58:23;2.85;;;0.73;;
45806;SDS011;31507;51.494;7.518;2022-07-06T10:00:49;3.15;;;0.75;;
45806;SDS011;31507;51.494;7.518;2022-07-06T10:03:16;4.25;;;1.15;;
45806;SDS011;31507;51.494;7.518;2022-07-06T10:05:43;4.80;;;0.90;;
45806;SDS011;31507;51.494;7.518;2022-07-06T10:08:15;4.18;;;0.70;;
45806;SDS011;31507;51.494;7.518;2022-07-06T10:10:42;4.85;;;0.98;;
45806;SDS011;31507;51.494;7.518;2022-07-06T10:13:08;5.32;;;0.63;;
45806;SDS011;31507;51.494;7.518;2022-07-06T10:15:38;1.40;;;0.70;;
45806;SDS011;31507;51.494;7.518;2022-07-06T10:18:06;3.15;;;0.50;;
45806;SDS011;31507;51.494;7.518;2022-07-06T10:20:34;5.40;;;1.08;;
45806;SDS011;31507;51.494;7.518;2022-07-06T10:23:03;3.17;;;0.60;;
45806;SDS011;31507;51.494;7.518;2022-07-06T10:25:30;6.13;;;0.90;;
45806;SDS011;31507;51.494;7.518;2022-07-06T10:27:57;2.60;;;0.90;;
45806;SDS011;31507;51.494;7.518;2022-07-06T10:30:24;3.00;;;0.80;;
45806;SDS011;31507;51.494;7.518;2022-07-06T10:32:50;4.68;;;1.00;;
45806;SDS011;31507;51.494;7.518;2022-07-06T10:35:19;2.42;;;0.60;;
45806;SDS011;31507;51.494;7.518;2022-07-06T10:37:46;3.40;;;0.77;;
45806;SDS011;31507;51.494;7.518;2022-07-06T10:40:31;3.13;;;0.93;;
45806;SDS011;31507;51.494;7.518;2022-07-06T10:43:17;3.95;;;0.80;;
45806;SDS011;31507;51.494;7.518;2022-07-06T10:50:40;1.98;;;0.47;;
45806;SDS011;31507;51.494;7.518;2022-07-06T10:53:11;4.00;;;0.60;;
45806;SDS011;31507;51.494;7.518;2022-07-06T10:55:45;1.73;;;0.52;;
45806;SDS011;31507;51.494;7.518;2022-07-06T10:58:12;3.42;;;0.82;;
45806;SDS011;31507;51.494;7.518;2022-07-06T11:00:52;2.78;;;0.60;;
45806;SDS011;31507;51.494;7.518;2022-07-06T11:06:14;3.90;;;1.00;;
45806;SDS011;31507;51.494;7.518;2022-07-06T11:08:45;2.55;;;0.60;;
45806;SDS011;31507;51.494;7.518;2022-07-06T11:11:13;2.00;;;0.70;;
45806;SDS011;31507;51.494;7.518;2022-07-06T11:13:47;3.15;;;1.08;;
45806;SDS011;31507;51.494;7.518;2022-07-06T11:16:15;3.92;;;0.73;;
45806;SDS011;31507;51.494;7.518;2022-07-06T11:18:45;4.22;;;0.85;;
45806;SDS011;31507;51.494;7.518;2022-07-06T11:24:31;5.22;;;0.47;;
45806;SDS011;31507;51.494;7.518;2022-07-06T11:26:58;4.78;;;0.90;;
45806;SDS011;31507;51.494;7.518;2022-07-06T11:29:26;1.48;;;0.52;;
45806;SDS011;31507;51.494;7.518;2022-07-06T11:31:54;2.88;;;0.75;;
45806;SDS011;31507;51.494;7.518;2022-07-06T11:34:29;0.90;;;0.60;;
45806;SDS011;31507;51.494;7.518;2022-07-06T11:36:57;4.43;;;0.85;;
45806;SDS011;31507;51.494;7.518;2022-07-06T11:39:27;3.92;;;0.70;;
45806;SDS011;31507;51.494;7.518;2022-07-06T11:41:55;2.30;;;0.70;;
45806;SDS011;31507;51.494;7.518;2022-07-06T11:44:21;3.63;;;0.57;;
45806;SDS011;31507;51.494;7.518;2022-07-06T11:46:47;1.15;;;0.80;;
45806;SDS011;31507;51.494;7.518;2022-07-06T11:49:14;2.55;;;0.68;;
45806;SDS011;31507;51.494;7.518;2022-07-06T11:51:41;2.90;;;1.05;;
45806;SDS011;31507;51.494;7.518;2022-07-06T11:54:08;1.95;;;1.00;;
45806;SDS011;31507;51.494;7.518;2022-07-06T11:56:36;4.88;;;0.88;;
45806;SDS011;31507;51.494;7.518;2022-07-06T11:59:02;2.00;;;0.70;;
45806;SDS011;31507;51.494;7.518;2022-07-06T12:01:28;3.95;;;0.80;;
45806;SDS011;31507;51.494;7.518;2022-07-06T12:03:59;1.95;;;0.57;;
45806;SDS011;31507;51.494;7.518;2022-07-06T12:06:28;1.80;;;0.82;;
45806;SDS011;31507;51.494;7.518;2022-07-06T12:08:59;2.78;;;0.90;;
45806;SDS011;31507;51.494;7.518;2022-07-06T12:11:31;2.60;;;0.65;;
45806;SDS011;31507;51.494;7.518;2022-07-06T12:13:59;1.95;;;0.75;;
45806;SDS011;31507;51.494;7.518;2022-07-06T12:16:33;3.15;;;0.73;;
45806;SDS011;31507;51.494;7.518;2022-07-06T12:19:00;4.32;;;1.20;;
45806;SDS011;31507;51.494;7.518;2022-07-06T12:21:27;1.50;;;0.57;;
45806;SDS011;31507;51.494;7.518;2022-07-06T12:23:53;2.17;;;0.55;;
45806;SDS011;31507;51.494;7.518;2022-07-06T12:26:22;4.03;;;1.00;;
45806;SDS011;31507;51.494;7.518;2022-07-06T12:29:01;3.00;;;0.90;;
45806;SDS011;31507;51.494;7.518;2022-07-06T12:31:31;7.47;;;0.90;;
45806;SDS011;31507;51.494;7.518;2022-07-06T12:33:58;1.77;;;0.68;;
45806;SDS011;31507;51.494;7.518;2022-07-06T12:36:23;1.23;;;0.70;;
45806;SDS011;31507;51.494;7.518;2022-07-06T12:38:49;4.45;;;0.73;;
45806;SDS011;31507;51.494;7.518;2022-07-06T12:41:24;5.63;;;1.27;;
45806;SDS011;31507;51.494;7.518;2022-07-06T12:44:28;1.33;;;0.60;;
45806;SDS011;31507;51.494;7.518;2022-07-06T12:46:47;3.97;;;1.25;;
45806;SDS011;31507;51.494;7.518;2022-07-06T12:54:28;5.57;;;0.80;;
45806;SDS011;31507;51.494;7.518;2022-07-06T12:59:27;1.67;;;0.55;;
45806;SDS011;31507;51.494;7.518;2022-07-06T13:01:54;3.78;;;0.60;;
45806;SDS011;31507;51.494;7.518;2022-07-06T13:04:23;3.33;;;1.25;;
45806;SDS011;31507;51.494;7.518;2022-07-06T13:06:50;3.97;;;1.00;;
45806;SDS011;31507;51.494;7.518;2022-07-06T13:09:17;1.50;;;0.70;;
45806;SDS011;31507;51.494;7.518;2022-07-06T13:11:44;1.60;;;0.57;;
45806;SDS011;31507;51.494;7.518;2022-07-06T13:14:10;3.20;;;0.93;;
45806;SDS011;31507;51.494;7.518;2022-07-06T13:16:36;5.47;;;1.05;;
45806;SDS011;31507;51.494;7.518;2022-07-06T13:19:03;10.38;;;0.90;;
45806;SDS011;31507;51.494;7.518;2022-07-06T13:21:29;3.45;;;0.60;;
45806;SDS011;31507;51.494;7.518;2022-07-06T13:23:54;2.15;;;0.70;;
45806;SDS011;31507;51.494;7.518;2022-07-06T13:26:20;3.55;;;0.90;;
45806;SDS011;31507;51.494;7.518;2022-07-06T13:28:46;2.97;;;0.63;;
45806;SDS011;31507;51.494;7.518;2022-07-06T13:31:11;3.13;;;0.70;;
45806;SDS011;31507;51.494;7.518;2022-07-06T13:33:37;2.55;;;0.80;;
45806;SDS011;31507;51.494;7.518;2022-07-06T13:36:03;6.53;;;1.30;;
45806;SDS011;31507;51.494;7.518;2022-07-06T13:38:29;2.20;;;0.80;;
45806;SDS011;31507;51.494;7.518;2022-07-06T13:40:55;3.63;;;0.70;;
45806;SDS011;31507;51.494;7.518;2022-07-06T13:43:20;2.58;;;0.80;;
45806;SDS011;31507;51.494;7.518;2022-07-06T13:45:46;2.15;;;0.63;;
45806;SDS011;31507;51.494;7.518;2022-07-06T13:48:12;3.30;;;0.60;;
45806;SDS011;31507;51.494;7.518;2022-07-06T13:50:38;3.67;;;0.75;;
45806;SDS011;31507;51.494;7.518;2022-07-06T13:53:04;2.70;;;0.80;;
45806;SDS011;31507;51.494;7.518;2022-07-06T13:55:30;2.53;;;0.80;;
45806;SDS011;31507;51.494;7.518;2022-07-06T13:57:57;2.92;;;0.80;;
45806;SDS011;31507;51.494;7.518;2022-07-06T14:00:23;1.15;;;0.60;;
45806;SDS011;31507;51.494;7.518;2022-07-06T14:02:48;3.15;;;0.47;;
45806;SDS011;31507;51.494;7.518;2022-07-06T14:05:14;3.15;;;0.73;;
45806;SDS011;31507;51.494;7.518;2022-07-06T14:07:40;3.15;;;0.52;;
45806;SDS011;31507;51.494;7.518;2022-07-06T14:10:05;1.35;;;0.52;;
45806;SDS011;31507;51.494;7.518;2022-07-06T14:12:31;1.35;;;0.63;;
45806;SDS011;31507;51.494;7.518;2022-07-06T14:14:57;2.35;;;0.77;;
45806;SDS011;31507;51.494;7.518;2022-07-06T14:17:23;1.25;;;0.70;;
45806;SDS011;31507;51.494;7.518;2022-07-06T14:19:50;2.78;;;0.80;;
45806;SDS011;31507;51.494;7.518;2022-07-06T14:22:15;3.05;;;0.50;;
45806;SDS011;31507;51.494;7.518;2022-07-06T14:24:41;1.63;;;0.93;;
45806;SDS011;31507;51.494;7.518;2022-07-06T14:27:07;3.83;;;0.80;;
45806;SDS011;31507;51.494;7.518;2022-07-06T14:29:32;2.63;;;0.60;;
45806;SDS011;31507;51.494;7.518;2022-07-06T14:31:58;2.88;;;0.77;;
45806;SDS011;31507;51.494;7.518;2022-07-06T14:34:23;3.03;;;0.70;;
45806;SDS011;31507;51.494;7.518;2022-07-06T14:36:50;2.97;;;1.08;;
45806;SDS011;31507;51.494;7.518;2022-07-06T14:39:16;2.50;;;0.95;;
45806;SDS011;31507;51.494;7.518;2022-07-06T14:41:41;1.88;;;0.80;;
45806;SDS011;31507;51.494;7.518;2022-07-06T14:44:07;2.10;;;0.73;;
45806;SDS011;31507;51.494;7.518;2022-07-06T14:46:33;2.35;;;0.93;;
45806;SDS011;31507;51.494;7.518;2022-07-06T14:48:59;1.40;;;0.77;;
45806;SDS011;31507;51.494;7.518;2022-07-06T14:51:25;2.72;;;0.82;;
45806;SDS011;31507;51.494;7.518;2022-07-06T14:53:51;2.40;;;0.70;;
45806;SDS011;31507;51.494;7.518;2022-07-06T14:56:17;2.70;;;0.65;;
45806;SDS011;31507;51.494;7.518;2022-07-06T14:58:43;4.03;;;0.80;;
45806;SDS011;31507;51.494;7.518;2022-07-06T15:01:08;2.28;;;0.70;;
45806;SDS011;31507;51.494;7.518;2022-07-06T15:03:35;2.67;;;0.80;;
45806;SDS011;31507;51.494;7.518;2022-07-06T15:06:01;3.53;;;0.70;;
45806;SDS011;31507;51.494;7.518;2022-07-06T15:08:27;1.15;;;0.60;;